الصفحة الرئيسية
METAR-TAF:

METAR-TAF

مطار :

Clayton, نيومكسيكو, الولايات المتحدة

دائرة عرض: 36-26-54N, خط طول: 103-09-11W, ارتفاع: 1513 متر

مراقبة الطقس الحالي

تاريخ ووقت الإصدار 11 دقيقة قبل الساعة 19:55UTC
ريح 10 عقدة من الجنوب الغربي تتزايد حتى 18 عقدة
درجة الحرارة 18°درجة مئوية
الرطوبة 19%
ضغط 1013 hPa
الرؤية: 16.1 كم
سماء صافية

METAR: KCAO 191955Z AUTO 22010G18KT 10SM CLR 18/M06 A2992 RMK AO2 SLP096 T01781061

زمن: 14:06 (20:06 UTC)


TAF: مفقودة

أرصاد الطقس والتوقعات من أكثر من 4000 مطار (تقارير الطقس للمطار METAR والتنبؤ بالطقس بالمطارTAF).

المحطات المتاحة هي النقط الصفراء والحمراء على الخريطة.

حرك المؤشر فوق النقطة لمعرفة اسم المحطة.

ثم انقر لمعرفة أرصاد وتوقعات الطقس.

لتغيير الخارطة: اضغط على الأزرار الخضراء مع رمز الصليب الأسود للتكبير. على الزر الأخضر مع شرطة للتصغير، أو على الأسهم الخضراء للخرائط المجاورة.


METAR-TAF: